Strona główna
METAR-TAF:

METAR-TAF

Lotnisko :

Port lotniczy Londyn-Oksford

Oksford, Anglia

Szerokość geograficzna: 51-50-13N, Długość geograficzna: 1-19-12W, wysokość: 82 m

Aktualna obserwacja pogody

Raport powstał 5 godziny i 49 minut temu, godzina 17:50 UTC
Wiatr 8 kt od południe
Temperatura 13°C
Wilgotność 47%
Ciśnienie 1017 hPa
Widzialność 10 km lub więcej
Brak chmur poniżej 1500 m i brak chmur cumulonimbus

METAR: EGTK 041750Z 17008KT CAVOK 13/02 Q1017

czas: 00:39 (23:39 UTC)

Prognoza

Raport powstał 9 godziny i 46 minut temu, godzina 13:53 UTC
Prognoza ważna od 04 godzina 15 UTC do 04 godzina 18 UTC
Wiatr 11 kt od południe
Widzialność 10 km lub więcej
Rozproszone chmury na wysokości 4500 ft

TAF: EGTK 041353Z 0415/0418 18011KT 9999 SCT045

Obserwacja i prognoza pogody dla ponad 4000 lotnisk (raport METAR i TAF).

Dostępne stacje oznaczono żółtymi i czerwonymi punktami na mapie.

Najedź kursorem aby zobaczyć nazwę stacji.

Kliknij aby zobaczyć obserwacje i prognozy pogody.

Aby zmienić mapę: kliknij na zielony przycisk z czarnym krzyżykiem, aby powiększyć; na zielony przycisk z myślnikiem, aby pomniejszyć; na zielone strzałki, aby przejść do map sąsiednich.


METAR-TAF: